x

South Bermuda - 300 Nm Sse Of Bermuda (41049) Wave Buoy

1:50am - Fri 26th Dec 2014 All times are UTC.

  • Sig Wave height 4.9ft
  • Swell Direction
  • Peak Period 9s
  • Average Period 7s
  • Wind
    2mph
  • Sea Temp 77°f
  • Air Temp 74°f
  • Sea Pressure 1022.1mb

More Historic Weather Station data

Upgrade to MSW Pro to gain access to the past 30 days of data for over 8000 Wavebouys and Weather Stations around the globe.

Join Pro

Comparision Forecast

View Surf forecast
   
Fri 12/26 1:50am 5ft 9s 7s 2
mph
1022.1mb 77f 74f
12:50am 5ft 10s 7s 4 9 mph 1021.7mb 77f 74f
Thu 12/25 11:50pm 4.5ft 8s 7s 7 9 mph 1021.7mb 77f 74f
10:50pm 4.5ft 8s 7s 7 9 mph 1021.5mb 77f 74f
9:50pm 4.5ft 12s 7s 4 7 mph 1021.5mb 77f 74f
8:50pm 4.5ft 8s 7s 7 9 mph 1021.2mb 77f 74f
7:50pm 5ft 8s 7s 7 9 mph 1020.8mb 77f 74f
6:50pm 4.5ft 11s 7s 4 9 mph 1020.9mb 77f 74f
5:50pm 4.5ft 9s 6s 7 9 mph 1020.9mb 77f 75f
4:50pm 4.5ft 9s 7s 9 11 mph 1021.4mb 77f 75f
3:50pm 4.5ft 11s 7s 7 9 mph 1022.4mb 77f 75f
2:50pm 4.5ft 8s 7s 9 11 mph 1022.7mb 77f 75f
1:50pm 4.5ft 11s 7s 9 11 mph 1022.9mb 77f 76f
12:50pm 4.5ft 11s 7s 9 11 mph 1022.6mb 77f 76f
11:50am 4.5ft 9s 7s 11 13 mph 1021.7mb 77f 75f
10:50am 4.5ft 11s 7s 9 11 mph 1021.4mb 77f 75f
9:50am 4.5ft 9s 7s 9 11 mph 1020.7mb 77f 75f
8:50am 4.5ft 11s 7s 7 9 mph 1020.3mb 77f 74f
7:50am 4.5ft 11s 7s 11 13 mph 1020.3mb 77f 74f
6:50am 4.5ft 9s 8s 7 9 mph 1020.5mb 77f 74f
5:50am 4ft 10s 7s 7 11 mph 1021mb 77f 75f
4:50am 4.5ft 11s 8s 4 9 mph 1021.1mb 77f 74f
3:50am 4.5ft 9s 8s 7 9 mph 1021.3mb 77f 75f
2:50am 4.5ft 10s 8s 7 9 mph 1021.4mb 77f 75f
1:50am 3.5ft 8s 8s 4 9 mph 1021.7mb 77f 74f
12:50am 3.5ft 9s 8s 4 7 mph 1021.3mb 77f 74f
Wed 12/24 11:50pm 4ft 9s 8s 7 9 mph 1021mb 77f 74f
10:50pm 4ft 9s 7s 4
mph
1020.6mb 77f 73f
9:50pm 3.5ft 9s 7s 9 13 mph 1020.4mb 78f 73f
8:50pm 4ft 8s 8s 13 16 mph 1019.8mb 78f 73f
7:50pm 4ft 9s 8s 7 9 mph 1019.6mb 78f 75f
6:50pm 4ft 10s 8s 4 7 mph 1019.5mb 78f 76f
5:50pm 3.5ft 10s 8s 4 7 mph 1019.4mb 78f 75f
4:50pm 4ft 11s 8s 4 7 mph 1019.8mb 78f 75f
3:50pm 3.5ft 9s 8s 4 7 mph 1020.7mb 78f 75f
2:50pm 4ft 8s 8s 4 7 mph 1020.9mb 78f 75f
1:50pm 3.5ft 8s 8s 2 4 mph 1021.2mb 77f 75f
12:50pm 3.5ft 9s 8s 4 7 mph 1020.7mb 77f 75f
11:50am 4ft 9s 8s 4
mph
1020.1mb 77f 74f
10:50am 3.5ft 9s 8s 4 7 mph 1020mb 77f 74f
9:50am 3.5ft 11s 7s 4
mph
1019.9mb 77f 74f
8:50am 4ft 9s 8s 2 4 mph 1019.5mb 77f 74f
7:50am 3.5ft 10s 8s 2 4 mph 1019.8mb 77f 74f
6:50am 4ft 9s 8s 2 4 mph 1020.1mb 77f 74f
5:50am 3.5ft 9s 7s 2
mph
1020.3mb 77f 74f
4:50am 4ft 9s 8s 2 4 mph 1020.3mb 77f 74f
3:50am 3.5ft 9s 8s 2 4 mph 1020.6mb 77f 74f
2:50am 3.5ft 9s 7s 4 7 mph 1021.1mb 77f 75f
1:50am 3.5ft 9s 7s 4 7 mph 1021mb 77f 75f
12:50am 3.5ft 9s 7s 4
mph
1020.5mb 77f 75f
Tue 12/23 11:50pm 3.5ft 9s 7s 2 4 mph 1020.4mb 77f 75f
10:50pm 3.5ft 9s 7s 4 7 mph 1020.1mb 78f 75f
9:50pm 3ft 9s 7s 4 7 mph 1019.8mb 78f 75f
8:50pm 3.5ft 8s 7s 4 7 mph 1019.7mb 78f 76f
7:50pm 3.5ft 9s 7s 4 7 mph 1019.7mb 78f 76f
6:50pm 3.5ft 10s 7s 4 7 mph 1019.4mb 79f 76f
5:50pm 3.5ft 10s 7s 2 4 mph 1019.8mb 79f 76f
4:50pm 3.5ft 9s 7s 2 4 mph 1020mb 79f 76f
3:50pm 3.5ft 9s 7s 2 4 mph 1020.3mb 78f 76f
2:50pm 3.5ft 9s 7s 2 4 mph 1021.2mb 78f 76f
1:50pm 3.5ft 10s 7s 4 7 mph 1021.4mb 77f 76f
12:50pm 3.5ft 10s 7s 2 4 mph 1021.2mb 77f 76f
11:50am 3.5ft 8s 7s 4 7 mph 1020.6mb 77f 75f
10:50am 3.5ft 9s 7s 4 9 mph 1020.1mb 77f 74f
9:50am 3.5ft 8s 7s 4 7 mph 1019.7mb 77f 74f
8:50am 3.5ft 10s 7s 4 7 mph 1019.5mb 77f 74f
7:50am 3.5ft 10s 7s 4 7 mph 1019.8mb 77f 74f
6:50am 3.5ft 9s 7s 4 7 mph 1020.2mb 77f 74f
5:50am 3.5ft 9s 7s 7 9 mph 1020.3mb 77f 75f
4:50am 3.5ft 8s 7s 4
mph
1020.9mb 77f 75f
3:50am 3.5ft 9s 7s 4 7 mph 1021.3mb 77f 75f
2:50am 3.5ft 8s 7s 4 7 mph 1021.6mb 77f 75f
1:50am 3.5ft 9s 7s 4 7 mph 1021.5mb 78f 75f
12:50am 3.5ft 10s 7s 4 7 mph 1021.3mb 78f 75f
Mon 12/22 11:50pm 3.5ft 9s 6s 4 7 mph 1021mb 78f 75f
10:50pm 3.5ft 7s 6s 7 11 mph 1020.6mb 78f 74f
9:50pm 3.5ft 10s 6s 7 9 mph 1020.3mb 78f 74f
8:50pm 3.5ft 10s 7s 2 7 mph 1020mb 78f 77f
7:50pm 3.5ft 9s 7s  -  2 mph 1020.2mb 79f 78f
6:50pm 3.5ft 8s 7s 2 4 mph 1020.2mb 79f 77f
5:50pm 3.5ft 8s 7s 2
mph
1020.5mb 78f 76f
4:50pm 3.5ft 8s 7s 2
mph
1020.9mb 78f 76f
3:50pm 4ft 8s 7s 2 4 mph 1022mb 78f 75f
2:50pm 4ft 8s 7s 2
mph
1022.5mb 78f 76f
1:50pm 3.5ft 8s 7s 2 4 mph 1022.9mb 77f 75f
12:50pm 3.5ft 9s 7s 2
mph
1022.4mb 77f 75f
11:50am 4ft 8s 7s 4 7 mph 1022mb 77f 74f
10:50am 4.5ft 9s 7s 2 4 mph 1021.7mb 77f 73f
9:50am 4ft 8s 7s 2 4 mph 1020.9mb 77f 73f
8:50am 4.5ft 8s 7s  -  mph 1020.6mb 77f 73f
7:50am 4ft 9s 7s  -  mph 1020.6mb 77f 73f
6:50am 4.5ft 9s 7s 2
mph
1021.1mb 77f 73f
5:50am 4.5ft 8s 7s 2 4 mph 1021.4mb 77f 73f
4:50am 4.5ft 9s 7s 7
mph
1021.8mb 77f 73f
3:50am 4ft 10s 7s 11 13 mph 1022.2mb 77f 73f